sensor_id;sensor_type;location;lat;lon;timestamp;pressure;altitude;pressure_sealevel;temperature;humidity
57412;BME280;43247;52.828;-8.980;2023-01-25T00:00:26;103725.54;;;7.10;100.00
57412;BME280;43247;52.828;-8.980;2023-01-25T00:01:26;103724.05;;;7.11;100.00
57412;BME280;43247;52.828;-8.980;2023-01-25T00:02:27;103723.47;;;7.12;100.00
57412;BME280;43247;52.828;-8.980;2023-01-25T00:03:28;103722.75;;;7.12;100.00
57412;BME280;43247;52.828;-8.980;2023-01-25T00:04:28;103724.94;;;7.12;100.00
57412;BME280;43247;52.828;-8.980;2023-01-25T00:05:28;103722.49;;;7.12;100.00
57412;BME280;43247;52.828;-8.980;2023-01-25T00:06:28;103720.35;;;7.11;100.00
57412;BME280;43247;52.828;-8.980;2023-01-25T00:07:29;103720.10;;;7.11;100.00
57412;BME280;43247;52.828;-8.980;2023-01-25T00:08:29;103721.08;;;7.11;100.00
57412;BME280;43247;52.828;-8.980;2023-01-25T00:09:30;103718.64;;;7.11;100.00
57412;BME280;43247;52.828;-8.980;2023-01-25T00:10:30;103717.50;;;7.12;100.00
57412;BME280;43247;52.828;-8.980;2023-01-25T00:11:30;103717.26;;;7.11;100.00
57412;BME280;43247;52.828;-8.980;2023-01-25T00:12:31;103721.34;;;7.11;100.00
57412;BME280;43247;52.828;-8.980;2023-01-25T00:13:31;103720.22;;;7.11;100.00
57412;BME280;43247;52.828;-8.980;2023-01-25T00:14:32;103717.58;;;7.11;100.00
57412;BME280;43247;52.828;-8.980;2023-01-25T00:15:32;103718.15;;;7.11;100.00
57412;BME280;43247;52.828;-8.980;2023-01-25T00:16:33;103718.97;;;7.11;100.00
57412;BME280;43247;52.828;-8.980;2023-01-25T00:17:33;103719.83;;;7.11;100.00
57412;BME280;43247;52.828;-8.980;2023-01-25T00:18:34;103717.80;;;7.10;100.00
57412;BME280;43247;52.828;-8.980;2023-01-25T00:19:35;103718.01;;;7.10;100.00
57412;BME280;43247;52.828;-8.980;2023-01-25T00:20:35;103717.16;;;7.10;100.00
57412;BME280;43247;52.828;-8.980;2023-01-25T00:21:36;103717.21;;;7.11;100.00
57412;BME280;43247;52.828;-8.980;2023-01-25T00:22:36;103714.49;;;7.11;100.00
57412;BME280;43247;52.828;-8.980;2023-01-25T00:23:36;103715.63;;;7.11;100.00
57412;BME280;43247;52.828;-8.980;2023-01-25T00:24:36;103715.54;;;7.11;100.00
57412;BME280;43247;52.828;-8.980;2023-01-25T00:25:37;103715.89;;;7.10;100.00
57412;BME280;43247;52.828;-8.980;2023-01-25T00:26:38;103714.29;;;7.11;100.00
57412;BME280;43247;52.828;-8.980;2023-01-25T00:27:38;103717.44;;;7.12;100.00
57412;BME280;43247;52.828;-8.980;2023-01-25T00:28:38;103719.26;;;7.12;100.00
57412;BME280;43247;52.828;-8.980;2023-01-25T00:29:38;103720.22;;;7.12;100.00
57412;BME280;43247;52.828;-8.980;2023-01-25T00:30:39;103720.68;;;7.12;100.00
57412;BME280;43247;52.828;-8.980;2023-01-25T00:31:49;103719.58;;;7.11;100.00
57412;BME280;43247;52.828;-8.980;2023-01-25T00:32:47;103718.68;;;7.12;100.00
57412;BME280;43247;52.828;-8.980;2023-01-25T00:33:49;103716.91;;;7.12;100.00
57412;BME280;43247;52.828;-8.980;2023-01-25T00:34:44;103713.00;;;7.12;100.00
57412;BME280;43247;52.828;-8.980;2023-01-25T00:35:43;103714.02;;;7.11;100.00
57412;BME280;43247;52.828;-8.980;2023-01-25T00:36:43;103711.10;;;7.11;100.00
57412;BME280;43247;52.828;-8.980;2023-01-25T00:37:45;103709.26;;;7.12;100.00
57412;BME280;43247;52.828;-8.980;2023-01-25T00:38:42;103707.57;;;7.12;100.00
57412;BME280;43247;52.828;-8.980;2023-01-25T00:39:42;103703.59;;;7.12;100.00
57412;BME280;43247;52.828;-8.980;2023-01-25T00:40:43;103702.70;;;7.12;100.00
57412;BME280;43247;52.828;-8.980;2023-01-25T00:41:43;103701.73;;;7.12;100.00
57412;BME280;43247;52.828;-8.980;2023-01-25T00:42:44;103698.03;;;7.13;100.00
57412;BME280;43247;52.828;-8.980;2023-01-25T00:43:45;103696.68;;;7.12;100.00
57412;BME280;43247;52.828;-8.980;2023-01-25T00:44:45;103698.39;;;7.12;100.00
57412;BME280;43247;52.828;-8.980;2023-01-25T00:45:45;103693.61;;;7.12;100.00
57412;BME280;43247;52.828;-8.980;2023-01-25T00:46:45;103693.86;;;7.12;100.00
57412;BME280;43247;52.828;-8.980;2023-01-25T00:47:46;103693.64;;;7.13;100.00
57412;BME280;43247;52.828;-8.980;2023-01-25T00:48:47;103692.83;;;7.13;100.00
57412;BME280;43247;52.828;-8.980;2023-01-25T00:49:47;103693.63;;;7.13;100.00
57412;BME280;43247;52.828;-8.980;2023-01-25T00:50:47;103692.62;;;7.13;100.00
57412;BME280;43247;52.828;-8.980;2023-01-25T00:51:48;103693.40;;;7.14;100.00
57412;BME280;43247;52.828;-8.980;2023-01-25T00:52:49;103695.69;;;7.14;100.00
57412;BME280;43247;52.828;-8.980;2023-01-25T00:53:49;103696.47;;;7.14;100.00
57412;BME280;43247;52.828;-8.980;2023-01-25T00:54:50;103695.59;;;7.13;100.00
57412;BME280;43247;52.828;-8.980;2023-01-25T00:55:51;103696.96;;;7.14;100.00
57412;BME280;43247;52.828;-8.980;2023-01-25T00:56:51;103694.95;;;7.14;100.00
57412;BME280;43247;52.828;-8.980;2023-01-25T00:57:52;103694.27;;;7.14;100.00
57412;BME280;43247;52.828;-8.980;2023-01-25T00:58:52;103692.71;;;7.14;100.00
57412;BME280;43247;52.828;-8.980;2023-01-25T00:59:53;103693.57;;;7.14;100.00
57412;BME280;43247;52.828;-8.980;2023-01-25T01:00:55;103693.47;;;7.14;100.00
57412;BME280;43247;52.828;-8.980;2023-01-25T01:01:54;103694.95;;;7.15;100.00
57412;BME280;43247;52.828;-8.980;2023-01-25T01:02:54;103697.75;;;7.16;100.00
57412;BME280;43247;52.828;-8.980;2023-01-25T01:03:55;103697.67;;;7.16;100.00
57412;BME280;43247;52.828;-8.980;2023-01-25T01:04:55;103699.57;;;7.16;100.00
57412;BME280;43247;52.828;-8.980;2023-01-25T01:06:00;103698.47;;;7.15;100.00
57412;BME280;43247;52.828;-8.980;2023-01-25T01:06:56;103701.91;;;7.15;100.00
57412;BME280;43247;52.828;-8.980;2023-01-25T01:07:56;103704.61;;;7.16;100.00
57412;BME280;43247;52.828;-8.980;2023-01-25T01:08:56;103703.03;;;7.16;100.00
57412;BME280;43247;52.828;-8.980;2023-01-25T01:09:57;103705.18;;;7.16;100.00
57412;BME280;43247;52.828;-8.980;2023-01-25T01:10:59;103699.43;;;7.16;100.00
57412;BME280;43247;52.828;-8.980;2023-01-25T01:11:59;103700.11;;;7.16;100.00
57412;BME280;43247;52.828;-8.980;2023-01-25T01:12:59;103699.63;;;7.17;100.00
57412;BME280;43247;52.828;-8.980;2023-01-25T01:14:00;103694.88;;;7.17;100.00
57412;BME280;43247;52.828;-8.980;2023-01-25T01:15:00;103692.36;;;7.17;100.00
57412;BME280;43247;52.828;-8.980;2023-01-25T01:16:03;103692.43;;;7.17;100.00
57412;BME280;43247;52.828;-8.980;2023-01-25T01:17:01;103692.29;;;7.18;100.00
57412;BME280;43247;52.828;-8.980;2023-01-25T01:18:02;103691.42;;;7.17;100.00
57412;BME280;43247;52.828;-8.980;2023-01-25T01:19:03;103688.53;;;7.18;100.00
57412;BME280;43247;52.828;-8.980;2023-01-25T01:20:05;103691.14;;;7.18;100.00
57412;BME280;43247;52.828;-8.980;2023-01-25T01:21:05;103691.92;;;7.18;100.00
57412;BME280;43247;52.828;-8.980;2023-01-25T01:22:05;103695.13;;;7.18;100.00
57412;BME280;43247;52.828;-8.980;2023-01-25T01:23:05;103696.77;;;7.18;100.00
57412;BME280;43247;52.828;-8.980;2023-01-25T01:24:05;103697.63;;;7.18;100.00
57412;BME280;43247;52.828;-8.980;2023-01-25T01:25:06;103697.50;;;7.18;100.00
57412;BME280;43247;52.828;-8.980;2023-01-25T01:26:09;103695.09;;;7.18;100.00
57412;BME280;43247;52.828;-8.980;2023-01-25T01:27:06;103692.59;;;7.18;100.00
57412;BME280;43247;52.828;-8.980;2023-01-25T01:28:06;103691.39;;;7.19;100.00
57412;BME280;43247;52.828;-8.980;2023-01-25T01:29:06;103691.77;;;7.18;100.00
57412;BME280;43247;52.828;-8.980;2023-01-25T01:30:08;103690.78;;;7.19;100.00
57412;BME280;43247;52.828;-8.980;2023-01-25T01:31:09;103693.16;;;7.19;100.00
57412;BME280;43247;52.828;-8.980;2023-01-25T01:32:08;103691.86;;;7.19;100.00
57412;BME280;43247;52.828;-8.980;2023-01-25T01:33:08;103689.50;;;7.19;100.00
57412;BME280;43247;52.828;-8.980;2023-01-25T01:34:11;103691.05;;;7.19;100.00
57412;BME280;43247;52.828;-8.980;2023-01-25T01:35:09;103691.50;;;7.19;100.00
57412;BME280;43247;52.828;-8.980;2023-01-25T01:36:12;103688.85;;;7.19;100.00
57412;BME280;43247;52.828;-8.980;2023-01-25T01:37:10;103686.97;;;7.19;100.00
57412;BME280;43247;52.828;-8.980;2023-01-25T01:38:11;103687.77;;;7.20;100.00
57412;BME280;43247;52.828;-8.980;2023-01-25T01:39:11;103685.01;;;7.20;100.00
57412;BME280;43247;52.828;-8.980;2023-01-25T01:40:14;103681.33;;;7.19;100.00
57412;BME280;43247;52.828;-8.980;2023-01-25T01:41:13;103682.31;;;7.19;100.00
57412;BME280;43247;52.828;-8.980;2023-01-25T01:42:12;103679.32;;;7.19;100.00
57412;BME280;43247;52.828;-8.980;2023-01-25T01:43:18;103679.36;;;7.19;100.00
57412;BME280;43247;52.828;-8.980;2023-01-25T01:44:16;103678.61;;;7.19;100.00
57412;BME280;43247;52.828;-8.980;2023-01-25T01:46:16;103675.40;;;7.19;100.00
57412;BME280;43247;52.828;-8.980;2023-01-25T01:47:19;103673.02;;;7.19;100.00
57412;BME280;43247;52.828;-8.980;2023-01-25T01:48:18;103674.02;;;7.19;100.00
57412;BME280;43247;52.828;-8.980;2023-01-25T01:49:18;103674.12;;;7.19;100.00
57412;BME280;43247;52.828;-8.980;2023-01-25T01:50:18;103670.43;;;7.19;100.00
57412;BME280;43247;52.828;-8.980;2023-01-25T01:51:20;103670.78;;;7.19;100.00
57412;BME280;43247;52.828;-8.980;2023-01-25T01:52:17;103670.01;;;7.19;100.00
57412;BME280;43247;52.828;-8.980;2023-01-25T01:53:17;103670.71;;;7.19;100.00
57412;BME280;43247;52.828;-8.980;2023-01-25T01:54:21;103669.40;;;7.19;100.00
57412;BME280;43247;52.828;-8.980;2023-01-25T01:55:19;103669.00;;;7.19;100.00
57412;BME280;43247;52.828;-8.980;2023-01-25T01:56:21;103669.20;;;7.18;100.00
57412;BME280;43247;52.828;-8.980;2023-01-25T01:57:20;103671.10;;;7.18;100.00
57412;BME280;43247;52.828;-8.980;2023-01-25T01:58:18;103669.68;;;7.18;100.00
57412;BME280;43247;52.828;-8.980;2023-01-25T01:59:18;103668.43;;;7.18;100.00
57412;BME280;43247;52.828;-8.980;2023-01-25T02:00:21;103668.23;;;7.18;100.00
57412;BME280;43247;52.828;-8.980;2023-01-25T02:01:18;103665.59;;;7.17;100.00
57412;BME280;43247;52.828;-8.980;2023-01-25T02:02:19;103664.39;;;7.18;100.00
57412;BME280;43247;52.828;-8.980;2023-01-25T02:03:19;103663.12;;;7.18;100.00
57412;BME280;43247;52.828;-8.980;2023-01-25T02:04:21;103656.70;;;7.18;100.00
57412;BME280;43247;52.828;-8.980;2023-01-25T02:05:25;103647.94;;;7.17;100.00
57412;BME280;43247;52.828;-8.980;2023-01-25T02:06:26;103645.63;;;7.17;100.00
57412;BME280;43247;52.828;-8.980;2023-01-25T02:07:22;103642.41;;;7.16;100.00
57412;BME280;43247;52.828;-8.980;2023-01-25T02:08:20;103644.75;;;7.16;100.00
57412;BME280;43247;52.828;-8.980;2023-01-25T02:09:23;103643.44;;;7.16;100.00
57412;BME280;43247;52.828;-8.980;2023-01-25T02:10:21;103646.71;;;7.15;100.00
57412;BME280;43247;52.828;-8.980;2023-01-25T02:11:21;103649.44;;;7.15;100.00
57412;BME280;43247;52.828;-8.980;2023-01-25T02:12:22;103651.51;;;7.14;100.00
57412;BME280;43247;52.828;-8.980;2023-01-25T02:13:21;103652.28;;;7.14;100.00
57412;BME280;43247;52.828;-8.980;2023-01-25T02:14:22;103654.67;;;7.13;100.00
57412;BME280;43247;52.828;-8.980;2023-01-25T02:15:22;103657.21;;;7.13;100.00
57412;BME280;43247;52.828;-8.980;2023-01-25T02:16:24;103658.50;;;7.12;100.00
57412;BME280;43247;52.828;-8.980;2023-01-25T02:17:25;103656.48;;;7.11;100.00
57412;BME280;43247;52.828;-8.980;2023-01-25T02:18:23;103663.31;;;7.12;100.00
57412;BME280;43247;52.828;-8.980;2023-01-25T02:19:30;103666.21;;;7.11;100.00
57412;BME280;43247;52.828;-8.980;2023-01-25T02:20:28;103668.47;;;7.12;100.00
57412;BME280;43247;52.828;-8.980;2023-01-25T02:21:24;103666.31;;;7.11;100.00
57412;BME280;43247;52.828;-8.980;2023-01-25T02:22:28;103664.70;;;7.11;100.00
57412;BME280;43247;52.828;-8.980;2023-01-25T02:23:28;103666.43;;;7.11;100.00
57412;BME280;43247;52.828;-8.980;2023-01-25T02:24:28;103668.55;;;7.10;100.00
57412;BME280;43247;52.828;-8.980;2023-01-25T02:25:24;103668.45;;;7.09;100.00
57412;BME280;43247;52.828;-8.980;2023-01-25T02:26:25;103672.97;;;7.10;100.00
57412;BME280;43247;52.828;-8.980;2023-01-25T02:27:25;103672.95;;;7.08;100.00
57412;BME280;43247;52.828;-8.980;2023-01-25T02:28:28;103674.74;;;7.09;100.00
57412;BME280;43247;52.828;-8.980;2023-01-25T02:29:26;103675.65;;;7.08;100.00
57412;BME280;43247;52.828;-8.980;2023-01-25T02:30:26;103677.37;;;7.08;100.00
57412;BME280;43247;52.828;-8.980;2023-01-25T02:31:26;103677.10;;;7.08;100.00
57412;BME280;43247;52.828;-8.980;2023-01-25T02:32:27;103678.68;;;7.08;100.00
57412;BME280;43247;52.828;-8.980;2023-01-25T02:33:27;103677.49;;;7.08;100.00
57412;BME280;43247;52.828;-8.980;2023-01-25T02:34:27;103681.18;;;7.09;100.00
57412;BME280;43247;52.828;-8.980;2023-01-25T02:35:36;103681.87;;;7.09;100.00
57412;BME280;43247;52.828;-8.980;2023-01-25T02:36:29;103685.26;;;7.10;100.00
57412;BME280;43247;52.828;-8.980;2023-01-25T02:37:28;103684.18;;;7.10;100.00
57412;BME280;43247;52.828;-8.980;2023-01-25T02:38:31;103683.52;;;7.10;100.00
57412;BME280;43247;52.828;-8.980;2023-01-25T02:39:28;103682.97;;;7.11;100.00
57412;BME280;43247;52.828;-8.980;2023-01-25T02:40:30;103682.42;;;7.11;100.00
57412;BME280;43247;52.828;-8.980;2023-01-25T02:41:32;103681.35;;;7.11;100.00
57412;BME280;43247;52.828;-8.980;2023-01-25T02:42:29;103682.68;;;7.11;100.00
57412;BME280;43247;52.828;-8.980;2023-01-25T02:43:31;103683.42;;;7.11;100.00
57412;BME280;43247;52.828;-8.980;2023-01-25T02:44:30;103683.07;;;7.11;100.00
57412;BME280;43247;52.828;-8.980;2023-01-25T02:45:29;103682.59;;;7.12;100.00
57412;BME280;43247;52.828;-8.980;2023-01-25T02:46:31;103680.53;;;7.12;100.00
57412;BME280;43247;52.828;-8.980;2023-01-25T02:47:29;103681.27;;;7.13;100.00
57412;BME280;43247;52.828;-8.980;2023-01-25T02:48:30;103684.24;;;7.13;100.00
57412;BME280;43247;52.828;-8.980;2023-01-25T02:49:30;103685.15;;;7.13;100.00
57412;BME280;43247;52.828;-8.980;2023-01-25T02:50:30;103684.80;;;7.14;100.00
57412;BME280;43247;52.828;-8.980;2023-01-25T02:51:32;103686.51;;;7.15;100.00
57412;BME280;43247;52.828;-8.980;2023-01-25T02:52:31;103687.53;;;7.15;100.00
57412;BME280;43247;52.828;-8.980;2023-01-25T02:53:31;103687.97;;;7.15;100.00
57412;BME280;43247;52.828;-8.980;2023-01-25T02:54:31;103688.63;;;7.15;100.00
57412;BME280;43247;52.828;-8.980;2023-01-25T02:55:31;103685.87;;;7.16;100.00
57412;BME280;43247;52.828;-8.980;2023-01-25T02:56:32;103686.53;;;7.16;100.00
57412;BME280;43247;52.828;-8.980;2023-01-25T02:57:32;103683.41;;;7.16;100.00
57412;BME280;43247;52.828;-8.980;2023-01-25T02:58:32;103682.68;;;7.16;100.00
57412;BME280;43247;52.828;-8.980;2023-01-25T02:59:32;103681.35;;;7.17;100.00
57412;BME280;43247;52.828;-8.980;2023-01-25T03:00:33;103684.52;;;7.17;100.00
57412;BME280;43247;52.828;-8.980;2023-01-25T03:01:34;103682.35;;;7.17;100.00
57412;BME280;43247;52.828;-8.980;2023-01-25T03:02:33;103684.31;;;7.18;100.00
57412;BME280;43247;52.828;-8.980;2023-01-25T03:03:34;103680.57;;;7.18;100.00
57412;BME280;43247;52.828;-8.980;2023-01-25T03:04:34;103679.22;;;7.18;100.00
57412;BME280;43247;52.828;-8.980;2023-01-25T03:05:34;103682.46;;;7.18;100.00
57412;BME280;43247;52.828;-8.980;2023-01-25T03:06:35;103685.34;;;7.19;100.00
57412;BME280;43247;52.828;-8.980;2023-01-25T03:07:34;103684.28;;;7.19;100.00
57412;BME280;43247;52.828;-8.980;2023-01-25T03:08:34;103682.25;;;7.19;100.00
57412;BME280;43247;52.828;-8.980;2023-01-25T03:09:35;103682.50;;;7.19;100.00
57412;BME280;43247;52.828;-8.980;2023-01-25T03:10:35;103682.80;;;7.20;100.00
57412;BME280;43247;52.828;-8.980;2023-01-25T03:11:35;103681.08;;;7.20;100.00
57412;BME280;43247;52.828;-8.980;2023-01-25T03:12:35;103679.88;;;7.20;100.00
57412;BME280;43247;52.828;-8.980;2023-01-25T03:13:36;103676.93;;;7.20;100.00
57412;BME280;43247;52.828;-8.980;2023-01-25T03:14:35;103676.86;;;7.20;100.00
57412;BME280;43247;52.828;-8.980;2023-01-25T03:15:36;103673.21;;;7.21;100.00
57412;BME280;43247;52.828;-8.980;2023-01-25T03:16:36;103672.96;;;7.21;100.00
57412;BME280;43247;52.828;-8.980;2023-01-25T03:17:36;103668.77;;;7.21;100.00
57412;BME280;43247;52.828;-8.980;2023-01-25T03:18:37;103669.47;;;7.21;100.00
57412;BME280;43247;52.828;-8.980;2023-01-25T03:19:36;103669.81;;;7.21;100.00
57412;BME280;43247;52.828;-8.980;2023-01-25T03:20:37;103667.02;;;7.21;100.00
57412;BME280;43247;52.828;-8.980;2023-01-25T03:21:39;103662.65;;;7.22;100.00
57412;BME280;43247;52.828;-8.980;2023-01-25T03:22:37;103657.45;;;7.22;100.00
57412;BME280;43247;52.828;-8.980;2023-01-25T03:23:38;103650.37;;;7.22;100.00
57412;BME280;43247;52.828;-8.980;2023-01-25T03:24:37;103647.74;;;7.22;100.00
57412;BME280;43247;52.828;-8.980;2023-01-25T03:25:37;103647.36;;;7.22;100.00
57412;BME280;43247;52.828;-8.980;2023-01-25T03:26:38;103648.49;;;7.23;100.00
57412;BME280;43247;52.828;-8.980;2023-01-25T03:27:38;103645.51;;;7.22;100.00
57412;BME280;43247;52.828;-8.980;2023-01-25T03:28:39;103643.91;;;7.22;100.00
57412;BME280;43247;52.828;-8.980;2023-01-25T03:29:39;103643.61;;;7.22;100.00
57412;BME280;43247;52.828;-8.980;2023-01-25T03:30:38;103645.06;;;7.22;100.00
57412;BME280;43247;52.828;-8.980;2023-01-25T03:31:39;103643.71;;;7.22;100.00
57412;BME280;43247;52.828;-8.980;2023-01-25T03:32:39;103642.45;;;7.22;100.00
57412;BME280;43247;52.828;-8.980;2023-01-25T03:33:39;103642.58;;;7.22;100.00
57412;BME280;43247;52.828;-8.980;2023-01-25T03:34:39;103641.87;;;7.22;100.00
57412;BME280;43247;52.828;-8.980;2023-01-25T03:35:39;103640.66;;;7.23;100.00
57412;BME280;43247;52.828;-8.980;2023-01-25T03:36:40;103641.01;;;7.22;100.00
57412;BME280;43247;52.828;-8.980;2023-01-25T03:37:40;103640.97;;;7.22;100.00
57412;BME280;43247;52.828;-8.980;2023-01-25T03:38:40;103641.76;;;7.22;100.00
57412;BME280;43247;52.828;-8.980;2023-01-25T03:39:40;103641.04;;;7.22;100.00
57412;BME280;43247;52.828;-8.980;2023-01-25T03:40:40;103643.53;;;7.22;100.00
57412;BME280;43247;52.828;-8.980;2023-01-25T03:41:41;103646.44;;;7.23;100.00
57412;BME280;43247;52.828;-8.980;2023-01-25T03:42:41;103649.92;;;7.23;100.00
57412;BME280;43247;52.828;-8.980;2023-01-25T03:43:41;103648.95;;;7.23;100.00
57412;BME280;43247;52.828;-8.980;2023-01-25T03:44:41;103650.48;;;7.23;100.00
57412;BME280;43247;52.828;-8.980;2023-01-25T03:45:41;103650.58;;;7.23;100.00
57412;BME280;43247;52.828;-8.980;2023-01-25T03:46:42;103647.54;;;7.23;100.00
57412;BME280;43247;52.828;-8.980;2023-01-25T03:47:42;103644.40;;;7.23;100.00
57412;BME280;43247;52.828;-8.980;2023-01-25T03:48:42;103642.27;;;7.22;100.00
57412;BME280;43247;52.828;-8.980;2023-01-25T03:49:42;103640.63;;;7.22;100.00
57412;BME280;43247;52.828;-8.980;2023-01-25T03:50:43;103639.04;;;7.22;100.00
57412;BME280;43247;52.828;-8.980;2023-01-25T03:51:42;103635.55;;;7.23;100.00
57412;BME280;43247;52.828;-8.980;2023-01-25T03:52:42;103633.58;;;7.23;100.00
57412;BME280;43247;52.828;-8.980;2023-01-25T03:53:43;103634.56;;;7.23;100.00
57412;BME280;43247;52.828;-8.980;2023-01-25T03:54:43;103634.49;;;7.22;100.00
57412;BME280;43247;52.828;-8.980;2023-01-25T03:55:43;103635.19;;;7.22;100.00
57412;BME280;43247;52.828;-8.980;2023-01-25T03:56:43;103634.95;;;7.22;100.00
57412;BME280;43247;52.828;-8.980;2023-01-25T03:57:43;103636.58;;;7.23;100.00
57412;BME280;43247;52.828;-8.980;2023-01-25T03:58:44;103638.65;;;7.23;100.00
57412;BME280;43247;52.828;-8.980;2023-01-25T03:59:44;103637.68;;;7.23;100.00
57412;BME280;43247;52.828;-8.980;2023-01-25T04:00:44;103638.07;;;7.23;100.00
57412;BME280;43247;52.828;-8.980;2023-01-25T04:01:44;103637.17;;;7.23;100.00
57412;BME280;43247;52.828;-8.980;2023-01-25T04:02:44;103637.56;;;7.23;100.00
57412;BME280;43247;52.828;-8.980;2023-01-25T04:03:45;103636.72;;;7.23;100.00
57412;BME280;43247;52.828;-8.980;2023-01-25T04:04:45;103634.04;;;7.24;100.00
57412;BME280;43247;52.828;-8.980;2023-01-25T04:05:45;103630.86;;;7.24;100.00
57412;BME280;43247;52.828;-8.980;2023-01-25T04:06:45;103628.91;;;7.24;100.00
57412;BME280;43247;52.828;-8.980;2023-01-25T04:07:45;103627.64;;;7.24;100.00
57412;BME280;43247;52.828;-8.980;2023-01-25T04:08:45;103621.61;;;7.24;100.00
57412;BME280;43247;52.828;-8.980;2023-01-25T04:09:46;103619.64;;;7.25;100.00
57412;BME280;43247;52.828;-8.980;2023-01-25T04:10:49;103616.13;;;7.25;100.00
57412;BME280;43247;52.828;-8.980;2023-01-25T04:11:48;103617.37;;;7.25;100.00
57412;BME280;43247;52.828;-8.980;2023-01-25T04:12:46;103616.32;;;7.24;100.00
57412;BME280;43247;52.828;-8.980;2023-01-25T04:13:46;103616.49;;;7.24;100.00
57412;BME280;43247;52.828;-8.980;2023-01-25T04:14:46;103619.40;;;7.25;100.00
57412;BME280;43247;52.828;-8.980;2023-01-25T04:15:47;103621.80;;;7.24;100.00
57412;BME280;43247;52.828;-8.980;2023-01-25T04:16:47;103620.36;;;7.24;100.00
57412;BME280;43247;52.828;-8.980;2023-01-25T04:17:47;103622.61;;;7.25;100.00
57412;BME280;43247;52.828;-8.980;2023-01-25T04:18:47;103620.64;;;7.24;100.00
57412;BME280;43247;52.828;-8.980;2023-01-25T04:19:48;103621.29;;;7.25;100.00
57412;BME280;43247;52.828;-8.980;2023-01-25T04:20:51;103622.60;;;7.25;100.00
57412;BME280;43247;52.828;-8.980;2023-01-25T04:21:48;103622.18;;;7.24;100.00
57412;BME280;43247;52.828;-8.980;2023-01-25T04:22:48;103623.36;;;7.25;100.00
57412;BME280;43247;52.828;-8.980;2023-01-25T04:23:48;103625.67;;;7.25;100.00
57412;BME280;43247;52.828;-8.980;2023-01-25T04:24:48;103626.60;;;7.26;100.00
57412;BME280;43247;52.828;-8.980;2023-01-25T04:25:52;103623.57;;;7.26;100.00
57412;BME280;43247;52.828;-8.980;2023-01-25T04:26:49;103623.30;;;7.26;100.00
57412;BME280;43247;52.828;-8.980;2023-01-25T04:27:49;103622.14;;;7.25;100.00
57412;BME280;43247;52.828;-8.980;2023-01-25T04:28:49;103622.32;;;7.26;100.00
57412;BME280;43247;52.828;-8.980;2023-01-25T04:29:49;103621.10;;;7.26;100.00
57412;BME280;43247;52.828;-8.980;2023-01-25T04:30:50;103623.22;;;7.26;100.00
57412;BME280;43247;52.828;-8.980;2023-01-25T04:31:49;103623.87;;;7.27;100.00
57412;BME280;43247;52.828;-8.980;2023-01-25T04:32:50;103625.43;;;7.27;100.00
57412;BME280;43247;52.828;-8.980;2023-01-25T04:33:50;103626.95;;;7.27;100.00
57412;BME280;43247;52.828;-8.980;2023-01-25T04:34:50;103625.81;;;7.26;100.00
57412;BME280;43247;52.828;-8.980;2023-01-25T04:35:50;103627.99;;;7.26;100.00
57412;BME280;43247;52.828;-8.980;2023-01-25T04:36:50;103628.07;;;7.27;100.00
57412;BME280;43247;52.828;-8.980;2023-01-25T04:37:53;103627.33;;;7.28;100.00
57412;BME280;43247;52.828;-8.980;2023-01-25T04:38:51;103627.45;;;7.28;100.00
57412;BME280;43247;52.828;-8.980;2023-01-25T04:39:51;103627.98;;;7.27;100.00
57412;BME280;43247;52.828;-8.980;2023-01-25T04:40:51;103623.89;;;7.28;100.00
57412;BME280;43247;52.828;-8.980;2023-01-25T04:41:51;103622.16;;;7.28;100.00
57412;BME280;43247;52.828;-8.980;2023-01-25T04:42:51;103618.15;;;7.29;100.00
57412;BME280;43247;52.828;-8.980;2023-01-25T04:43:52;103613.26;;;7.29;100.00
57412;BME280;43247;52.828;-8.980;2023-01-25T04:44:52;103610.94;;;7.30;100.00
57412;BME280;43247;52.828;-8.980;2023-01-25T04:45:52;103609.93;;;7.30;100.00
57412;BME280;43247;52.828;-8.980;2023-01-25T04:46:52;103606.61;;;7.30;100.00
57412;BME280;43247;52.828;-8.980;2023-01-25T04:47:55;103606.02;;;7.31;100.00
57412;BME280;43247;52.828;-8.980;2023-01-25T04:48:53;103607.96;;;7.31;100.00
57412;BME280;43247;52.828;-8.980;2023-01-25T04:49:53;103610.66;;;7.31;100.00
57412;BME280;43247;52.828;-8.980;2023-01-25T04:50:53;103611.85;;;7.32;100.00
57412;BME280;43247;52.828;-8.980;2023-01-25T04:51:53;103609.60;;;7.32;100.00
57412;BME280;43247;52.828;-8.980;2023-01-25T04:52:53;103611.19;;;7.32;100.00
57412;BME280;43247;52.828;-8.980;2023-01-25T04:53:53;103617.36;;;7.32;100.00
57412;BME280;43247;52.828;-8.980;2023-01-25T04:54:54;103621.57;;;7.32;100.00
57412;BME280;43247;52.828;-8.980;2023-01-25T04:55:54;103621.78;;;7.32;100.00
57412;BME280;43247;52.828;-8.980;2023-01-25T04:56:54;103619.19;;;7.31;100.00
57412;BME280;43247;52.828;-8.980;2023-01-25T04:57:54;103621.14;;;7.32;100.00
57412;BME280;43247;52.828;-8.980;2023-01-25T04:58:54;103621.31;;;7.32;100.00
57412;BME280;43247;52.828;-8.980;2023-01-25T04:59:54;103623.92;;;7.33;100.00
57412;BME280;43247;52.828;-8.980;2023-01-25T05:00:59;103626.69;;;7.33;100.00
57412;BME280;43247;52.828;-8.980;2023-01-25T05:01:55;103629.43;;;7.33;100.00
57412;BME280;43247;52.828;-8.980;2023-01-25T05:02:55;103632.45;;;7.33;100.00
57412;BME280;43247;52.828;-8.980;2023-01-25T05:03:55;103634.30;;;7.33;100.00
57412;BME280;43247;52.828;-8.980;2023-01-25T05:04:55;103635.65;;;7.33;100.00
57412;BME280;43247;52.828;-8.980;2023-01-25T05:05:56;103637.71;;;7.33;100.00
57412;BME280;43247;52.828;-8.980;2023-01-25T05:06:56;103636.35;;;7.33;100.00
57412;BME280;43247;52.828;-8.980;2023-01-25T05:07:56;103635.32;;;7.33;100.00
57412;BME280;43247;52.828;-8.980;2023-01-25T05:08:56;103636.67;;;7.33;100.00
57412;BME280;43247;52.828;-8.980;2023-01-25T05:09:56;103636.55;;;7.33;100.00
57412;BME280;43247;52.828;-8.980;2023-01-25T05:10:56;103637.40;;;7.33;100.00
57412;BME280;43247;52.828;-8.980;2023-01-25T05:11:57;103637.76;;;7.33;100.00